Time;durP1;ratioP1;P1;durP2;ratioP2;P2;SDS_P1;SDS_P2;PMS_P1;PMS_P2;Temp;Humidity;BMP_temperature;BMP_pressure;BME280_temperature;BME280_humidity;BME280_pressure;Samples;Min_cycle;Max_cycle;Signal;HPM_P1;HPM_P2
2021/01/20 00:02:16;;;;;;;13.15;6.32;;;6.10;99.90;;;;;;5077282;28;20035;-70
2021/01/20 00:04:41;;;;;;;11.75;7.10;;;6.20;99.90;;;;;;5077249;28;20381;-71
2021/01/20 00:07:07;;;;;;;8.98;5.90;;;6.20;99.90;;;;;;5076886;28;20385;-71
2021/01/20 00:09:32;;;;;;;11.23;6.22;;;6.20;99.90;;;;;;5075515;28;20490;-71
2021/01/20 00:11:58;;;;;;;11.05;6.20;;;6.20;99.90;;;;;;5077106;28;20028;-71
2021/01/20 00:14:24;;;;;;;11.77;6.50;;;6.20;99.90;;;;;;5077057;28;20025;-70
2021/01/20 00:16:51;;;;;;;17.58;6.32;;;6.10;99.90;;;;;;5076769;28;20056;-71
2021/01/20 00:19:17;;;;;;;12.45;5.65;;;6.00;99.90;;;;;;5075567;28;20021;-70
2021/01/20 00:21:42;;;;;;;14.45;6.75;;;6.00;99.90;;;;;;5077234;28;20036;-71
2021/01/20 00:24:08;;;;;;;16.35;8.45;;;5.90;99.90;;;;;;5076894;28;20059;-71
2021/01/20 00:26:33;;;;;;;11.55;6.20;;;5.80;99.90;;;;;;5075602;28;20041;-71
2021/01/20 00:28:59;;;;;;;15.30;6.10;;;5.80;99.90;;;;;;5076839;28;20085;-71
2021/01/20 00:31:25;;;;;;;17.30;6.10;;;5.90;99.90;;;;;;5075477;28;20465;-71
2021/01/20 00:33:50;;;;;;;16.80;6.10;;;5.90;99.90;;;;;;5076705;28;20040;-71
2021/01/20 00:36:16;;;;;;;13.50;6.57;;;5.90;99.90;;;;;;5076118;28;20024;-71
2021/01/20 00:38:41;;;;;;;11.77;5.70;;;5.90;99.90;;;;;;5076612;28;20104;-71
2021/01/20 00:41:07;;;;;;;9.90;5.20;;;5.80;99.90;;;;;;5076604;28;20064;-71
2021/01/20 00:43:32;;;;;;;12.63;5.10;;;5.80;99.90;;;;;;5076554;28;20032;-71
2021/01/20 00:45:58;;;;;;;9.25;4.78;;;5.80;99.90;;;;;;5076506;28;20028;-71
2021/01/20 00:48:24;;;;;;;15.30;5.35;;;5.80;99.90;;;;;;5076443;28;20034;-71
2021/01/20 00:50:57;;;;;;;9.75;4.80;;;5.80;99.90;;;;;;5076367;28;20028;-71
2021/01/20 00:53:23;;;;;;;10.73;4.32;;;5.80;99.90;;;;;;5076365;28;20075;-71
2021/01/20 00:55:49;;;;;;;13.02;4.90;;;5.80;99.90;;;;;;5076365;28;20454;-70
2021/01/20 00:58:14;;;;;;;10.20;4.63;;;5.90;99.90;;;;;;5074873;28;20052;-71
2021/01/20 01:00:40;;;;;;;9.57;4.43;;;5.80;99.90;;;;;;5075982;28;20028;-71
2021/01/20 01:03:06;;;;;;;6.32;3.90;;;5.80;99.90;;;;;;5074081;28;20161;-71
2021/01/20 01:05:32;;;;;;;9.40;4.18;;;5.90;99.90;;;;;;5075873;28;20025;-70
2021/01/20 01:07:57;;;;;;;11.68;4.55;;;5.80;99.90;;;;;;5076103;28;20036;-71
2021/01/20 01:10:24;;;;;;;10.30;4.25;;;5.80;99.90;;;;;;5075366;28;20520;-71
2021/01/20 01:12:49;;;;;;;6.95;3.63;;;5.80;99.90;;;;;;5075751;28;20369;-71
2021/01/20 01:15:15;;;;;;;5.25;3.35;;;5.80;99.90;;;;;;5074139;28;20029;-71
2021/01/20 01:17:40;;;;;;;14.48;4.47;;;5.90;99.90;;;;;;5074093;28;20031;-71
2021/01/20 01:20:07;;;;;;;7.35;3.50;;;5.90;99.90;;;;;;5075590;28;20082;-71
2021/01/20 01:22:32;;;;;;;7.25;3.85;;;5.80;99.90;;;;;;5075797;28;20027;-70
2021/01/20 01:24:58;;;;;;;7.50;3.70;;;5.80;99.90;;;;;;5075762;28;20104;-71
2021/01/20 01:27:23;;;;;;;10.30;3.92;;;5.80;99.90;;;;;;5075133;28;20056;-70
2021/01/20 01:29:49;;;;;;;9.23;4.03;;;5.90;99.90;;;;;;5075606;28;20514;-71
2021/01/20 01:32:14;;;;;;;9.13;3.70;;;5.90;99.90;;;;;;5075323;28;20461;-71
2021/01/20 01:34:40;;;;;;;7.20;3.42;;;5.80;99.90;;;;;;5075292;28;20028;-71
2021/01/20 01:37:06;;;;;;;7.68;4.00;;;5.90;99.90;;;;;;5073720;28;20034;-71
2021/01/20 01:39:33;;;;;;;7.82;3.75;;;5.80;99.90;;;;;;5073655;28;20051;-71
2021/01/20 01:41:59;;;;;;;8.48;3.60;;;5.70;99.90;;;;;;5075495;28;20457;-71
2021/01/20 01:44:25;;;;;;;12.23;3.95;;;5.70;99.90;;;;;;5075108;28;20074;-71
2021/01/20 01:46:50;;;;;;;8.70;3.90;;;5.70;99.90;;;;;;5075357;28;20029;-71
2021/01/20 01:49:16;;;;;;;7.95;4.03;;;5.70;99.90;;;;;;5074941;28;20380;-71
2021/01/20 01:51:42;;;;;;;8.00;3.85;;;5.80;99.90;;;;;;5075203;28;20025;-71
2021/01/20 01:54:08;;;;;;;7.85;3.90;;;5.80;99.90;;;;;;5074667;28;20478;-71
2021/01/20 01:56:34;;;;;;;6.32;3.53;;;5.70;99.90;;;;;;5073946;28;20378;-71
2021/01/20 01:59:00;;;;;;;10.48;3.67;;;5.80;99.90;;;;;;5075080;28;20025;-71
2021/01/20 02:01:25;;;;;;;7.38;3.65;;;5.80;99.90;;;;;;5075022;28;20377;-71
2021/01/20 02:03:51;;;;;;;8.30;3.80;;;5.80;99.90;;;;;;5073866;28;20039;-71
2021/01/20 02:06:17;;;;;;;9.20;4.25;;;5.80;99.90;;;;;;5074683;28;20462;-71
2021/01/20 02:08:46;;;;;;;7.90;3.95;;;5.80;99.90;;;;;;5074630;28;20031;-72
2021/01/20 02:11:51;;;;;;;9.30;3.97;;;5.70;99.90;;;;;;5074760;28;20021;-71
2021/01/20 02:14:31;;;;;;;9.00;3.72;;;5.80;99.90;;;;;;5073539;28;20469;-71
2021/01/20 02:17:12;;;;;;;6.65;3.33;;;5.80;99.90;;;;;;5074754;28;20021;-71
2021/01/20 02:20:00;;;;;;;11.10;4.30;;;5.70;99.90;;;;;;5074126;28;20382;-71
2021/01/20 02:22:32;;;;;;;7.00;3.65;;;5.70;99.90;;;;;;5074367;28;20028;-71
2021/01/20 02:25:13;;;;;;;7.53;3.70;;;5.60;99.90;;;;;;5074346;28;20020;-71
2021/01/20 02:28:17;;;;;;;9.15;4.40;;;5.70;99.90;;;;;;5072743;28;20025;-71
2021/01/20 02:30:44;;;;;;;8.15;3.92;;;5.70;99.90;;;;;;5074389;28;20446;-71
2021/01/20 02:33:16;;;;;;;13.05;4.30;;;5.70;99.90;;;;;;5074453;28;20023;-71
2021/01/20 02:35:43;;;;;;;7.70;4.50;;;5.70;99.90;;;;;;5074425;28;20111;-71
2021/01/20 02:38:09;;;;;;;7.82;4.65;;;5.70;99.90;;;;;;5073870;28;20021;-71
2021/01/20 02:40:35;;;;;;;9.57;4.32;;;5.80;99.90;;;;;;5074065;28;20422;-71
2021/01/20 02:43:01;;;;;;;10.63;5.13;;;5.80;99.90;;;;;;5074339;28;20033;-71
2021/01/20 02:45:27;;;;;;;13.15;4.88;;;5.80;99.90;;;;;;5074314;28;20052;-71
2021/01/20 02:47:53;;;;;;;14.35;4.75;;;5.80;99.90;;;;;;5074265;28;20025;-71
2021/01/20 02:50:20;;;;;;;9.18;4.60;;;5.90;99.90;;;;;;5072622;28;20028;-71
2021/01/20 02:53:09;;;;;;;10.32;4.55;;;5.90;99.90;;;;;;5073915;28;20020;-71
2021/01/20 02:55:35;;;;;;;10.18;4.60;;;5.90;99.90;;;;;;5073583;28;20158;-71
2021/01/20 02:58:05;;;;;;;11.25;5.05;;;6.00;99.90;;;;;;5073890;28;20035;-71
2021/01/20 03:00:32;;;;;;;9.20;4.15;;;6.00;99.90;;;;;;5074123;28;20438;-71
2021/01/20 03:03:03;;;;;;;9.05;4.72;;;6.00;99.90;;;;;;5074085;28;20424;-71
2021/01/20 03:05:29;;;;;;;7.43;4.50;;;6.10;99.90;;;;;;5073809;28;20021;-70
2021/01/20 03:07:56;;;;;;;8.00;4.80;;;6.20;99.90;;;;;;5073748;28;20032;-71
2021/01/20 03:10:23;;;;;;;7.88;4.10;;;6.10;99.90;;;;;;5073371;28;20051;-71
2021/01/20 03:12:49;;;;;;;10.60;4.30;;;6.20;99.90;;;;;;5072827;28;20365;-71
2021/01/20 03:15:28;;;;;;;7.40;4.25;;;6.30;99.90;;;;;;5073679;28;20029;-71
2021/01/20 03:17:53;;;;;;;9.38;4.25;;;6.30;99.90;;;;;;5073941;28;20026;-71
2021/01/20 03:20:19;;;;;;;7.90;4.15;;;6.40;99.90;;;;;;5072103;28;20115;-71
2021/01/20 03:22:44;;;;;;;8.35;4.18;;;6.40;99.90;;;;;;5072368;28;20024;-71
2021/01/20 03:25:10;;;;;;;10.13;4.15;;;6.40;99.90;;;;;;5073320;28;20063;-71
2021/01/20 03:27:36;;;;;;;8.93;4.22;;;6.40;99.90;;;;;;5059181;28;20035;-71
2021/01/20 03:30:04;;;;;;;8.55;4.20;;;6.50;99.90;;;;;;5077857;28;20100;-71
2021/01/20 03:32:29;;;;;;;8.70;5.10;;;6.50;99.90;;;;;;5077386;28;20472;-71
2021/01/20 03:34:56;;;;;;;10.20;4.53;;;6.50;99.90;;;;;;5076741;28;20020;-71
2021/01/20 03:37:22;;;;;;;5.80;4.07;;;6.60;99.90;;;;;;5077293;28;20020;-71
2021/01/20 03:39:47;;;;;;;6.95;4.18;;;6.60;99.90;;;;;;5077811;28;20032;-71
2021/01/20 03:42:13;;;;;;;8.70;4.20;;;6.60;99.90;;;;;;5077450;28;20444;-71
2021/01/20 03:44:38;;;;;;;11.23;4.88;;;6.70;99.90;;;;;;5077143;28;20381;-71
2021/01/20 03:47:04;;;;;;;10.90;4.45;;;6.80;99.90;;;;;;5077372;28;20031;-71
2021/01/20 03:49:29;;;;;;;8.40;4.07;;;6.70;99.90;;;;;;5077536;28;20381;-71
2021/01/20 03:51:55;;;;;;;9.63;4.20;;;6.70;99.90;;;;;;5075747;28;20035;-71
2021/01/20 03:54:20;;;;;;;8.43;4.07;;;6.80;99.90;;;;;;5076304;28;20020;-71
2021/01/20 03:56:46;;;;;;;6.78;3.50;;;6.80;99.90;;;;;;5077427;28;20034;-71
2021/01/20 03:59:12;;;;;;;9.23;4.10;;;6.90;99.90;;;;;;5077308;28;20025;-71
2021/01/20 04:01:37;;;;;;;8.13;4.18;;;6.90;99.90;;;;;;5077337;28;20032;-71
2021/01/20 04:04:03;;;;;;;8.52;4.50;;;6.90;99.90;;;;;;5077278;28;20025;-71
2021/01/20 04:06:28;;;;;;;7.45;4.15;;;6.90;99.90;;;;;;5076976;28;20024;-71
2021/01/20 04:08:54;;;;;;;7.80;3.50;;;6.90;99.90;;;;;;5076938;28;20131;-71
2021/01/20 04:11:21;;;;;;;8.13;4.07;;;6.90;99.90;;;;;;5076819;28;20032;-71
2021/01/20 04:13:47;;;;;;;8.43;3.58;;;7.00;99.90;;;;;;5077124;28;20016;-71
2021/01/20 04:16:13;;;;;;;8.73;4.07;;;7.00;99.90;;;;;;5077060;28;20593;-71
2021/01/20 04:18:38;;;;;;;7.57;3.97;;;6.90;99.90;;;;;;5077006;28;20067;-71
2021/01/20 04:21:04;;;;;;;8.52;3.92;;;7.00;99.90;;;;;;5075798;28;20024;-71
2021/01/20 04:23:30;;;;;;;6.68;3.80;;;7.00;99.90;;;;;;5076667;28;20044;-71
2021/01/20 04:25:55;;;;;;;7.20;3.97;;;7.00;99.90;;;;;;5076871;28;20529;-71
2021/01/20 04:28:21;;;;;;;6.60;3.35;;;7.00;99.90;;;;;;5076859;28;20039;-71
2021/01/20 04:30:46;;;;;;;6.38;3.97;;;7.00;99.90;;;;;;5076714;28;20029;-71
2021/01/20 04:33:12;;;;;;;6.03;3.92;;;7.00;99.90;;;;;;5076780;28;20104;-71
2021/01/20 04:35:38;;;;;;;8.02;4.22;;;7.00;99.90;;;;;;5076465;28;20020;-71
2021/01/20 04:38:04;;;;;;;6.00;3.38;;;6.90;99.90;;;;;;5075406;28;20024;-71
2021/01/20 04:40:29;;;;;;;6.75;4.38;;;7.00;99.90;;;;;;5076384;28;20422;-71
2021/01/20 04:42:55;;;;;;;8.10;4.18;;;6.90;99.90;;;;;;5076598;28;20067;-70
2021/01/20 04:45:22;;;;;;;6.85;3.90;;;6.90;99.90;;;;;;5076287;28;20477;-69
2021/01/20 04:47:51;;;;;;;9.05;4.20;;;6.80;99.90;;;;;;5076524;28;20078;-70
2021/01/20 04:50:19;;;;;;;5.70;3.47;;;6.90;99.90;;;;;;5076393;28;20052;-71
2021/01/20 04:52:46;;;;;;;10.98;3.92;;;6.80;99.90;;;;;;5076356;28;20021;-71
2021/01/20 04:55:13;;;;;;;6.60;3.58;;;6.90;99.90;;;;;;5076083;28;20024;-71
2021/01/20 04:57:39;;;;;;;7.22;3.40;;;7.10;99.90;;;;;;5074943;28;20031;-71
2021/01/20 05:00:06;;;;;;;9.43;4.07;;;7.10;99.90;;;;;;5076008;28;20017;-71
2021/01/20 05:02:34;;;;;;;7.45;3.75;;;7.10;99.90;;;;;;5076227;28;20021;-71
2021/01/20 05:05:01;;;;;;;7.70;3.60;;;7.20;99.90;;;;;;5076197;28;20016;-71
2021/01/20 05:07:28;;;;;;;5.63;3.00;;;7.20;99.90;;;;;;5057712;28;20074;-71
2021/01/20 05:09:54;;;;;;;7.68;3.83;;;7.30;99.90;;;;;;5075507;28;20051;-71
2021/01/20 05:12:37;;;;;;;7.15;3.40;;;7.30;99.90;;;;;;5074495;28;20059;-71
2021/01/20 05:15:05;;;;;;;5.53;3.45;;;7.30;99.90;;;;;;5075984;28;20016;-71
2021/01/20 05:17:32;;;;;;;7.45;3.83;;;7.40;99.90;;;;;;5075949;28;20024;-71
2021/01/20 05:19:58;;;;;;;5.13;3.47;;;7.40;99.90;;;;;;5075919;28;20017;-71
2021/01/20 05:22:24;;;;;;;6.45;3.42;;;7.30;99.90;;;;;;5075594;28;20480;-71
2021/01/20 05:24:58;;;;;;;6.05;3.22;;;7.30;99.90;;;;;;5075605;28;20103;-71
2021/01/20 05:27:31;;;;;;;5.10;3.35;;;7.30;99.90;;;;;;5073985;28;20032;-71
2021/01/20 05:29:59;;;;;;;5.40;3.20;;;7.30;99.90;;;;;;5075422;28;20024;-71
2021/01/20 05:32:25;;;;;;;4.80;3.60;;;7.30;99.90;;;;;;5075360;28;20481;-71
2021/01/20 05:35:07;;;;;;;5.47;3.63;;;7.30;99.90;;;;;;5075365;28;20021;-71
2021/01/20 05:37:48;;;;;;;4.80;3.40;;;7.30;99.90;;;;;;5075565;28;20048;-71
2021/01/20 05:40:16;;;;;;;6.13;3.58;;;7.30;99.90;;;;;;5074076;28;20024;-71
2021/01/20 05:45:23;;;;;;;9.25;4.00;;;7.30;99.90;;;;;;5111947;27;20440;-69
2021/01/20 05:48:09;;;;;;;7.13;3.70;;;7.40;99.90;;;;;;5111976;28;20028;-71
2021/01/20 05:50:37;;;;;;;7.45;4.15;;;7.40;99.90;;;;;;5110058;28;20044;-70
2021/01/20 05:53:06;;;;;;;8.20;3.80;;;7.40;99.90;;;;;;5111849;28;20026;-71
2021/01/20 05:55:31;;;;;;;7.40;3.75;;;7.30;99.90;;;;;;5110291;28;20020;-71
2021/01/20 05:57:58;;;;;;;6.50;3.20;;;7.40;99.90;;;;;;5111167;28;20107;-72
2021/01/20 06:00:24;;;;;;;7.20;3.58;;;7.40;99.90;;;;;;5111429;28;20026;-71
2021/01/20 06:02:55;;;;;;;6.55;3.15;;;7.40;99.90;;;;;;5111404;28;20452;-69
2021/01/20 06:05:21;;;;;;;8.05;3.83;;;7.50;99.90;;;;;;5111066;28;20361;-71
2021/01/20 06:07:49;;;;;;;7.43;3.95;;;7.40;99.90;;;;;;5109710;28;20526;-71
2021/01/20 06:10:15;;;;;;;5.43;3.65;;;7.40;99.90;;;;;;5111238;28;20078;-71
2021/01/20 06:12:40;;;;;;;5.03;3.72;;;7.40;99.90;;;;;;5111189;28;20087;-71
2021/01/20 06:15:06;;;;;;;6.40;3.35;;;7.30;99.90;;;;;;5111450;28;20035;-71
2021/01/20 06:17:39;;;;;;;7.18;3.80;;;7.30;99.90;;;;;;5111393;28;20059;-71
2021/01/20 06:20:06;;;;;;;4.80;3.70;;;7.30;99.90;;;;;;5109914;28;20023;-71
2021/01/20 06:22:34;;;;;;;6.47;4.25;;;7.10;99.90;;;;;;5111254;28;20107;-71
2021/01/20 06:25:06;;;;;;;9.93;3.88;;;7.10;99.90;;;;;;5110882;28;20027;-71
2021/01/20 06:27:43;;;;;;;6.83;4.03;;;7.00;99.90;;;;;;5110057;28;20020;-71
2021/01/20 06:30:13;;;;;;;6.28;3.72;;;7.10;99.90;;;;;;5111156;28;20250;-71
2021/01/20 06:32:45;;;;;;;6.82;3.92;;;7.10;99.90;;;;;;5109403;28;20479;-71
2021/01/20 06:35:11;;;;;;;9.27;4.47;;;7.20;99.90;;;;;;5111014;28;20106;-70
2021/01/20 06:37:41;;;;;;;11.65;4.60;;;7.30;99.90;;;;;;5110967;28;20104;-71
2021/01/20 06:43:39;;;;;;;13.40;6.85;;;7.40;99.90;;;;;;5110973;27;20435;-71
2021/01/20 06:46:26;;;;;;;14.93;5.55;;;7.50;99.90;;;;;;5093165;28;20210;-68
2021/01/20 06:49:00;;;;;;;6.72;4.30;;;7.70;99.90;;;;;;5110380;28;20118;-71
2021/01/20 06:51:28;;;;;;;6.32;3.63;;;7.70;99.90;;;;;;5110683;28;20032;-71
2021/01/20 06:56:55;;;;;;;8.38;3.65;;;7.90;99.90;;;;;;5112139;27;20354;-69
2021/01/20 06:59:23;;;;;;;4.88;3.47;;;8.00;99.90;;;;;;5110115;28;20024;-69
2021/01/20 07:05:07;;;;;;;7.05;3.05;;;8.10;99.90;;;;;;5091844;28;20829;-71
2021/01/20 07:07:54;;;;;;;5.10;2.90;;;8.20;99.90;;;;;;5090966;28;20046;-70
2021/01/20 07:10:21;;;;;;;6.78;3.25;;;8.20;99.90;;;;;;5090589;28;20023;-70
2021/01/20 07:13:13;;;;;;;5.88;3.15;;;8.30;99.90;;;;;;5090923;28;20070;-71
2021/01/20 07:15:43;;;;;;;4.65;3.00;;;8.40;99.90;;;;;;5091055;28;20465;-71
2021/01/20 07:18:10;;;;;;;4.95;3.10;;;8.40;99.90;;;;;;5091073;28;20055;-71
2021/01/20 07:20:36;;;;;;;6.97;3.40;;;8.40;99.90;;;;;;5090111;28;20024;-70
2021/01/20 07:23:02;;;;;;;6.45;3.50;;;8.40;99.90;;;;;;5090299;28;20153;-71
2021/01/20 07:25:27;;;;;;;4.10;2.42;;;8.40;99.90;;;;;;5090651;28;20028;-71
2021/01/20 07:27:53;;;;;;;4.15;2.42;;;8.40;99.90;;;;;;5088397;28;20558;-71
2021/01/20 07:30:20;;;;;;;3.08;2.60;;;8.40;99.90;;;;;;5093279;28;20555;-71
2021/01/20 07:32:45;;;;;;;4.07;2.63;;;8.40;99.90;;;;;;5090249;28;20051;-71
2021/01/20 07:35:28;;;;;;;5.43;2.58;;;8.40;99.90;;;;;;5086010;28;20354;-71
2021/01/20 07:38:09;;;;;;;8.00;2.80;;;8.40;99.90;;;;;;5088674;28;20060;-71
2021/01/20 07:40:38;;;;;;;6.78;3.10;;;8.40;99.90;;;;;;5088859;28;20043;-71
2021/01/20 07:43:33;;;;;;;3.90;2.65;;;8.40;99.90;;;;;;5088831;28;20077;-71
2021/01/20 07:46:22;;;;;;;5.30;2.95;;;8.50;99.90;;;;;;5038680;28;20025;-71
2021/01/20 07:48:49;;;;;;;4.50;2.67;;;8.40;99.90;;;;;;5080757;28;20107;-71
2021/01/20 07:51:17;;;;;;;4.60;2.63;;;8.40;99.90;;;;;;5089883;28;20023;-70
2021/01/20 07:53:57;;;;;;;4.45;2.85;;;8.40;99.90;;;;;;5089922;28;20021;-70
2021/01/20 07:56:23;;;;;;;4.90;2.53;;;8.40;99.90;;;;;;5069482;28;20024;-70
2021/01/20 07:58:49;;;;;;;6.28;2.83;;;8.40;99.90;;;;;;5070843;28;20432;-70
2021/01/20 08:01:30;;;;;;;4.82;2.72;;;8.40;99.90;;;;;;5089948;28;20039;-70
2021/01/20 08:03:57;;;;;;;3.53;2.35;;;8.40;99.90;;;;;;5089316;28;20048;-70
2021/01/20 08:06:25;;;;;;;5.65;2.65;;;8.50;99.90;;;;;;5089671;28;20492;-70
2021/01/20 08:08:53;;;;;;;4.65;2.78;;;8.50;99.90;;;;;;5088077;28;20111;-70
2021/01/20 08:11:20;;;;;;;2.63;2.20;;;8.40;99.90;;;;;;5088828;28;20106;-70
2021/01/20 08:13:47;;;;;;;4.22;2.53;;;8.50;99.90;;;;;;5089192;28;20029;-71
2021/01/20 08:16:13;;;;;;;6.22;2.70;;;8.50;99.90;;;;;;5074651;28;20017;-71
2021/01/20 08:18:39;;;;;;;3.65;2.33;;;8.50;99.90;;;;;;5074384;28;20450;-70
2021/01/20 08:21:08;;;;;;;6.90;2.67;;;8.50;99.90;;;;;;5076119;28;20100;-70
2021/01/20 08:23:57;;;;;;;6.28;2.53;;;8.60;99.90;;;;;;5076056;28;20032;-70
2021/01/20 08:26:26;;;;;;;4.60;2.80;;;8.60;99.90;;;;;;5075773;28;20024;-70
2021/01/20 08:29:12;;;;;;;5.43;2.50;;;8.60;99.90;;;;;;5075899;28;20462;-70
2021/01/20 08:31:42;;;;;;;3.95;2.42;;;8.60;99.90;;;;;;5075695;28;20066;-70
2021/01/20 08:34:20;;;;;;;4.20;2.17;;;8.60;99.90;;;;;;5075599;28;20112;-70
2021/01/20 08:37:08;;;;;;;4.68;2.55;;;8.60;99.90;;;;;;5075422;28;20020;-70
2021/01/20 08:39:36;;;;;;;5.75;2.47;;;8.60;99.90;;;;;;5075435;28;20436;-70
2021/01/20 08:42:26;;;;;;;5.38;2.60;;;8.70;99.90;;;;;;5075802;28;20020;-70
2021/01/20 08:45:15;;;;;;;4.50;2.40;;;8.70;99.90;;;;;;5075830;28;20035;-70
2021/01/20 08:48:03;;;;;;;6.00;2.30;;;8.70;99.90;;;;;;5075161;28;20039;-70
2021/01/20 08:53:13;;;;;;;4.93;2.95;;;8.70;99.90;;;;;;5111236;27;20905;-69
2021/01/20 08:55:41;;;;;;;5.47;2.70;;;8.80;99.90;;;;;;5111087;28;20023;-69
2021/01/20 08:58:33;;;;;;;3.53;2.45;;;8.80;99.90;;;;;;5109066;28;20057;-68
2021/01/20 09:01:04;;;;;;;5.10;2.58;;;8.80;99.90;;;;;;5110806;28;20024;-67
2021/01/20 09:03:38;;;;;;;3.50;2.30;;;8.90;99.90;;;;;;5110604;28;20015;-68
2021/01/20 09:06:12;;;;;;;3.47;2.10;;;8.90;99.90;;;;;;5109421;28;20024;-67
2021/01/20 09:08:37;;;;;;;3.83;2.38;;;8.90;99.90;;;;;;5110747;28;20026;-68
2021/01/20 09:11:03;;;;;;;3.78;2.33;;;9.00;99.90;;;;;;5110717;28;20099;-67
2021/01/20 09:13:29;;;;;;;4.63;2.97;;;9.00;99.90;;;;;;5110257;28;20164;-68
2021/01/20 09:15:56;;;;;;;6.25;2.97;;;9.00;99.90;;;;;;5110346;28;20032;-67
2021/01/20 09:18:23;;;;;;;5.25;2.30;;;8.90;99.90;;;;;;5110416;28;20024;-69
2021/01/20 09:20:49;;;;;;;4.68;2.55;;;8.90;99.90;;;;;;5110702;28;20020;-68
2021/01/20 09:23:14;;;;;;;7.38;2.90;;;8.90;99.90;;;;;;5110556;28;20068;-68
2021/01/20 09:25:40;;;;;;;7.82;2.58;;;8.90;99.90;;;;;;5110524;28;20020;-68
2021/01/20 09:28:06;;;;;;;10.13;2.72;;;8.90;99.90;;;;;;5109059;28;20016;-69
2021/01/20 09:30:33;;;;;;;6.78;2.88;;;9.00;99.90;;;;;;5110048;28;20016;-69
2021/01/20 09:32:59;;;;;;;6.22;2.50;;;9.10;99.90;;;;;;5110652;28;20388;-69
2021/01/20 09:35:25;;;;;;;7.50;2.65;;;9.10;99.90;;;;;;5110353;28;20027;-71
2021/01/20 09:37:53;;;;;;;3.67;2.47;;;9.10;99.90;;;;;;5109437;28;20027;-70
2021/01/20 09:40:21;;;;;;;5.07;2.53;;;9.20;99.90;;;;;;5109438;28;20396;-70
2021/01/20 09:42:49;;;;;;;3.95;2.47;;;9.40;99.90;;;;;;5110335;28;20107;-70
2021/01/20 09:45:17;;;;;;;5.10;2.58;;;9.60;99.90;;;;;;5092194;28;20073;-71
2021/01/20 09:47:44;;;;;;;8.18;3.15;;;10.10;99.90;;;;;;5110108;28;20016;-69
2021/01/20 09:50:12;;;;;;;6.25;2.90;;;10.60;99.90;;;;;;5109994;28;20023;-70
2021/01/20 09:52:38;;;;;;;5.95;2.78;;;10.70;99.90;;;;;;5109557;28;20036;-69
2021/01/20 09:55:05;;;;;;;5.90;2.80;;;10.80;99.90;;;;;;5110195;28;20117;-71
2021/01/20 09:57:31;;;;;;;4.25;2.67;;;11.70;99.90;;;;;;5110187;28;20020;-71
2021/01/20 09:59:57;;;;;;;5.00;2.72;;;12.40;99.90;;;;;;5108249;28;20027;-71
2021/01/20 10:02:23;;;;;;;4.90;2.58;;;11.60;99.90;;;;;;5108343;28;20492;-69
2021/01/20 10:04:48;;;;;;;4.45;2.83;;;11.00;99.90;;;;;;5095560;28;20499;-70
2021/01/20 10:07:15;;;;;;;8.93;3.47;;;10.30;99.90;;;;;;5094578;28;20649;-70
2021/01/20 10:09:41;;;;;;;4.25;2.47;;;10.00;99.90;;;;;;5095657;28;20028;-68
2021/01/20 10:12:08;;;;;;;4.57;2.53;;;9.90;99.90;;;;;;5094725;28;20028;-69
2021/01/20 10:14:34;;;;;;;6.32;3.15;;;9.80;99.90;;;;;;5095908;28;20543;-69
2021/01/20 10:17:00;;;;;;;11.48;2.97;;;10.00;99.90;;;;;;5094007;28;20107;-68
2021/01/20 10:19:26;;;;;;;5.63;3.20;;;10.00;99.90;;;;;;5095968;28;20091;-70
2021/01/20 10:21:52;;;;;;;5.30;2.83;;;10.00;99.90;;;;;;5096225;28;20073;-69
2021/01/20 10:24:17;;;;;;;7.35;3.10;;;9.80;99.90;;;;;;5094455;28;20034;-70
2021/01/20 10:26:43;;;;;;;3.85;2.85;;;10.00;99.90;;;;;;5095993;28;20052;-69
2021/01/20 10:29:09;;;;;;;5.25;3.28;;;11.00;99.90;;;;;;5095790;28;20461;-70
2021/01/20 10:31:36;;;;;;;5.78;3.40;;;11.80;99.90;;;;;;5095760;28;20028;-68
2021/01/20 10:34:03;;;;;;;4.25;3.22;;;12.40;99.90;;;;;;5095606;28;20016;-69
2021/01/20 10:36:29;;;;;;;4.35;3.03;;;13.20;99.90;;;;;;5095455;28;20066;-70
2021/01/20 10:38:55;;;;;;;3.97;2.63;;;13.10;99.90;;;;;;5096252;28;20016;-70
2021/01/20 10:41:21;;;;;;;4.18;2.60;;;13.00;99.90;;;;;;5095308;28;20496;-70
2021/01/20 10:43:49;;;;;;;4.07;2.45;;;13.30;99.90;;;;;;5094311;28;20063;-71
2021/01/20 10:46:16;;;;;;;5.97;2.92;;;13.10;99.90;;;;;;5095710;28;20024;-70
2021/01/20 10:48:42;;;;;;;5.97;2.70;;;13.60;99.90;;;;;;5095418;28;20024;-71
2021/01/20 10:51:10;;;;;;;3.40;2.95;;;13.40;99.90;;;;;;5095554;28;20036;-70
2021/01/20 10:53:40;;;;;;;4.53;2.83;;;13.50;99.90;;;;;;5094810;28;20027;-70
2021/01/20 10:56:07;;;;;;;4.97;2.80;;;13.70;99.90;;;;;;5095302;28;20423;-70
2021/01/20 10:58:33;;;;;;;7.35;3.33;;;13.70;99.90;;;;;;5095131;28;20374;-70
2021/01/20 11:00:59;;;;;;;6.38;3.33;;;14.20;99.90;;;;;;5095406;28;20020;-71
2021/01/20 11:03:25;;;;;;;6.57;3.17;;;14.90;99.90;;;;;;5093354;28;20031;-71
2021/01/20 11:05:51;;;;;;;6.10;3.25;;;15.00;99.90;;;;;;5094807;28;20110;-68
2021/01/20 11:08:16;;;;;;;7.90;3.70;;;14.70;99.90;;;;;;5094837;28;20024;-71
2021/01/20 11:10:42;;;;;;;4.32;2.90;;;14.80;99.90;;;;;;5093884;28;20553;-71
2021/01/20 11:13:07;;;;;;;4.93;3.05;;;15.10;99.90;;;;;;5095170;28;20358;-71
2021/01/20 11:15:45;;;;;;;4.72;2.97;;;15.50;99.90;;;;;;5094039;28;20047;-71
2021/01/20 11:18:11;;;;;;;5.00;3.10;;;14.80;99.90;;;;;;5095051;28;20091;-71
2021/01/20 11:20:37;;;;;;;5.10;2.72;;;14.50;99.90;;;;;;5094768;28;20059;-71
2021/01/20 11:23:02;;;;;;;6.78;3.28;;;14.60;99.90;;;;;;5094873;28;20024;-71
2021/01/20 11:25:28;;;;;;;4.72;2.80;;;14.30;99.90;;;;;;5094757;28;20024;-71
2021/01/20 11:27:53;;;;;;;5.45;2.83;;;14.60;99.90;;;;;;5094997;28;20035;-71
2021/01/20 11:30:20;;;;;;;5.03;2.70;;;14.30;99.90;;;;;;5094766;28;20032;-71
2021/01/20 11:32:46;;;;;;;5.53;2.85;;;14.10;99.90;;;;;;5094518;28;20024;-71
2021/01/20 11:35:13;;;;;;;4.38;2.75;;;13.30;99.90;;;;;;5094983;28;20421;-71
2021/01/20 11:37:39;;;;;;;7.32;2.55;;;12.90;99.90;;;;;;5094505;28;20031;-68
2021/01/20 11:40:06;;;;;;;4.10;2.35;;;12.50;99.90;;;;;;5092585;28;20052;-70
2021/01/20 11:42:31;;;;;;;8.25;2.72;;;12.30;99.90;;;;;;5092303;28;20032;-70
2021/01/20 11:44:57;;;;;;;5.22;2.65;;;12.00;99.90;;;;;;5090532;28;20032;-71
2021/01/20 11:47:22;;;;;;;8.70;3.30;;;11.60;99.90;;;;;;5091984;28;20127;-70
2021/01/20 11:49:50;;;;;;;11.85;3.30;;;11.50;99.90;;;;;;5091199;28;20028;-70
2021/01/20 11:52:16;;;;;;;7.80;3.17;;;11.40;99.90;;;;;;5092047;28;20040;-71
2021/01/20 11:54:42;;;;;;;6.72;2.75;;;11.50;99.90;;;;;;5092170;28;20016;-71
2021/01/20 11:57:07;;;;;;;4.93;3.00;;;11.50;99.90;;;;;;5093158;28;20127;-71
2021/01/20 11:59:33;;;;;;;5.63;2.75;;;11.90;99.90;;;;;;5092674;28;20024;-70
2021/01/20 12:01:58;;;;;;;5.75;2.90;;;12.00;99.90;;;;;;5094142;28;20020;-70
2021/01/20 12:04:24;;;;;;;5.20;2.72;;;11.70;99.90;;;;;;5093910;28;20469;-70
2021/01/20 12:06:49;;;;;;;6.80;2.88;;;11.60;99.90;;;;;;5093784;28;20066;-70
2021/01/20 12:09:15;;;;;;;8.68;2.80;;;11.50;99.90;;;;;;5092478;28;20112;-70
2021/01/20 12:11:40;;;;;;;8.10;2.92;;;11.30;99.90;;;;;;5092671;28;20103;-70
2021/01/20 12:14:06;;;;;;;9.38;3.75;;;11.20;99.90;;;;;;5093742;28;20056;-71
2021/01/20 12:16:31;;;;;;;4.85;2.72;;;11.10;99.90;;;;;;5093857;28;20465;-71
2021/01/20 12:18:57;;;;;;;8.07;3.00;;;11.00;99.90;;;;;;5094052;28;20023;-71
2021/01/20 12:21:23;;;;;;;6.97;3.00;;;11.00;99.90;;;;;;5093285;28;20103;-71
2021/01/20 12:23:48;;;;;;;9.25;3.03;;;11.10;99.90;;;;;;5093971;28;20097;-71
2021/01/20 12:26:13;;;;;;;4.88;2.85;;;11.20;99.90;;;;;;5092168;28;20024;-71
2021/01/20 12:28:39;;;;;;;4.75;3.03;;;11.20;99.90;;;;;;5093570;28;20055;-70
2021/01/20 12:31:05;;;;;;;7.32;3.55;;;11.20;99.90;;;;;;5091197;28;20469;-70
2021/01/20 12:33:30;;;;;;;3.75;2.75;;;11.10;99.90;;;;;;5086911;28;20366;-71
2021/01/20 12:35:56;;;;;;;5.03;3.00;;;11.10;99.90;;;;;;5093511;28;20024;-70
2021/01/20 12:38:21;;;;;;;5.63;2.90;;;11.20;99.90;;;;;;5093348;28;20028;-70
2021/01/20 12:40:47;;;;;;;8.00;3.55;;;11.20;99.90;;;;;;5076122;28;20021;-70
2021/01/20 12:43:12;;;;;;;12.60;3.70;;;11.20;99.90;;;;;;5073490;28;20074;-70
2021/01/20 12:45:38;;;;;;;4.93;3.15;;;11.10;99.90;;;;;;5087735;28;20085;-70
2021/01/20 12:48:06;;;;;;;5.22;2.90;;;11.20;99.90;;;;;;5080440;28;20036;-70
2021/01/20 12:50:31;;;;;;;5.32;3.10;;;11.20;99.90;;;;;;5073116;28;20025;-70
2021/01/20 12:52:57;;;;;;;6.38;2.63;;;11.10;99.90;;;;;;5078524;28;20465;-69
2021/01/20 12:55:23;;;;;;;4.88;2.80;;;11.10;99.90;;;;;;5092583;28;20021;-70
2021/01/20 12:57:49;;;;;;;5.70;3.10;;;11.00;99.90;;;;;;5084410;28;20100;-71
2021/01/20 13:00:15;;;;;;;7.35;2.78;;;11.00;99.90;;;;;;5072686;28;20100;-71
2021/01/20 13:02:40;;;;;;;8.27;2.83;;;11.00;99.90;;;;;;5080792;28;20020;-69
2021/01/20 13:05:06;;;;;;;7.13;3.35;;;11.00;99.90;;;;;;5092718;28;20032;-70
2021/01/20 13:07:32;;;;;;;5.88;2.67;;;11.00;99.90;;;;;;5086743;28;20028;-70
2021/01/20 13:09:57;;;;;;;4.20;2.90;;;11.10;99.90;;;;;;5073057;28;20093;-70
2021/01/20 13:12:23;;;;;;;4.47;3.28;;;11.30;99.90;;;;;;5087325;28;20077;-70
2021/01/20 13:14:49;;;;;;;4.88;2.80;;;11.30;99.90;;;;;;5091800;28;20027;-70